createdAt,value
2019-03-10T00:00:19.766Z,923.48
2019-03-10T00:01:19.750Z,923.45
2019-03-10T00:02:19.742Z,923.46
2019-03-10T00:03:19.840Z,923.48
2019-03-10T00:04:19.725Z,923.46
2019-03-10T00:05:19.713Z,923.46
2019-03-10T00:06:19.711Z,923.51
2019-03-10T00:07:19.691Z,923.50
2019-03-10T00:08:19.686Z,923.51
2019-03-10T00:09:19.965Z,923.52
2019-03-10T00:10:19.663Z,923.57
2019-03-10T00:11:19.649Z,923.53
2019-03-10T00:12:19.637Z,923.51
2019-03-10T00:13:19.626Z,923.48
2019-03-10T00:14:19.611Z,923.48
2019-03-10T00:15:19.709Z,923.50
2019-03-10T00:16:19.594Z,923.47
2019-03-10T00:17:19.592Z,923.46
2019-03-10T00:18:19.581Z,923.45
2019-03-10T00:19:19.558Z,923.44
2019-03-10T00:20:19.654Z,923.39
2019-03-10T00:31:19.445Z,923.42
2019-03-10T00:32:19.716Z,923.38
2019-03-10T00:33:19.414Z,923.39
2019-03-10T00:34:19.401Z,923.40
2019-03-10T00:35:19.392Z,923.37
2019-03-10T00:36:19.381Z,923.36
2019-03-10T00:37:19.368Z,923.40
2019-03-10T00:38:19.458Z,923.39
2019-03-10T00:39:19.354Z,923.40
2019-03-10T00:40:19.337Z,923.38
2019-03-10T00:41:19.334Z,923.39
2019-03-10T00:42:19.312Z,923.43
2019-03-10T00:43:19.302Z,923.43
2019-03-10T00:44:19.397Z,923.44
2019-03-10T00:45:19.290Z,923.43
2019-03-10T00:46:19.270Z,923.41
2019-03-10T00:47:19.262Z,923.38
2019-03-10T00:48:19.257Z,923.39
2019-03-10T00:49:19.242Z,923.38
2019-03-10T00:50:19.477Z,923.33
2019-03-10T00:51:19.225Z,923.36
2019-03-10T00:52:19.208Z,923.35
2019-03-10T00:53:19.198Z,923.37
2019-03-10T00:54:19.190Z,923.37
2019-03-10T00:55:19.173Z,923.38
2019-03-10T00:56:19.270Z,923.38
2019-03-10T00:57:19.164Z,923.33
2019-03-10T00:58:19.144Z,923.34
2019-03-10T00:59:19.140Z,923.40
2019-03-10T01:00:19.126Z,923.36
2019-03-10T01:01:19.122Z,923.38
2019-03-10T01:02:19.273Z,923.43
2019-03-10T01:03:19.099Z,923.43
2019-03-10T01:04:19.078Z,923.40
2019-03-10T01:05:19.069Z,923.38
2019-03-10T01:06:19.065Z,923.43
2019-03-10T01:07:19.052Z,923.45
2019-03-10T01:08:19.290Z,923.44
2019-03-10T01:09:19.033Z,923.42
2019-03-10T01:10:19.014Z,923.45
2019-03-10T01:11:19.009Z,923.50
2019-03-10T01:12:19.053Z,923.45
2019-03-10T01:13:18.987Z,923.48
2019-03-10T01:14:19.074Z,923.48
2019-03-10T01:15:18.965Z,923.51
2019-03-10T01:16:18.960Z,923.48
2019-03-10T01:17:18.943Z,923.48
2019-03-10T01:18:18.931Z,923.46
2019-03-10T01:19:18.926Z,923.49
2019-03-10T01:20:19.055Z,923.46
2019-03-10T01:21:18.898Z,923.47
2019-03-10T01:22:18.897Z,923.45
2019-03-10T01:23:18.876Z,923.48
2019-03-10T01:24:18.868Z,923.49
2019-03-10T01:25:18.852Z,923.49
2019-03-10T01:26:19.201Z,923.44
2019-03-10T01:27:18.834Z,923.49
2019-03-10T01:28:18.834Z,923.51
2019-03-10T01:29:18.816Z,923.49
2019-03-10T01:30:18.816Z,923.51
2019-03-10T01:31:18.791Z,923.47
2019-03-10T01:32:18.886Z,923.44
2019-03-10T01:33:18.770Z,923.46
2019-03-10T01:34:18.761Z,923.50
2019-03-10T01:35:18.750Z,923.46
2019-03-10T01:36:18.736Z,923.47
2019-03-10T01:37:18.730Z,923.45
2019-03-10T01:38:18.819Z,923.45
2019-03-10T01:39:18.704Z,923.40
2019-03-10T01:40:18.698Z,923.45
2019-03-10T01:41:18.689Z,923.44
2019-03-10T01:42:18.666Z,923.42
2019-03-10T01:43:18.662Z,923.41
2019-03-10T01:44:18.952Z,923.42
2019-03-10T01:45:18.649Z,923.39
2019-03-10T01:46:18.633Z,923.38
2019-03-10T01:47:18.616Z,923.40
2019-03-10T01:48:18.600Z,923.39
2019-03-10T01:49:18.590Z,923.40
2019-03-10T01:50:18.742Z,923.48
2019-03-10T01:51:18.587Z,923.41
2019-03-10T01:52:18.572Z,923.43
2019-03-10T01:53:25.541Z,923.45
2019-03-10T01:54:20.593Z,923.46
2019-03-10T01:55:18.531Z,923.43
2019-03-10T01:56:18.618Z,923.49
2019-03-10T01:57:18.508Z,923.47
2019-03-10T01:58:18.502Z,923.45
2019-03-10T01:59:18.494Z,923.42
2019-03-10T02:00:18.484Z,923.40
2019-03-10T02:01:18.471Z,923.39
2019-03-10T02:02:25.326Z,923.34
2019-03-10T02:03:43.270Z,923.37
2019-03-10T02:04:43.259Z,923.34
2019-03-10T02:05:43.245Z,923.34
2019-03-10T02:06:43.229Z,923.33
2019-03-10T02:07:43.328Z,923.36
2019-03-10T02:08:43.220Z,923.30
2019-03-10T02:09:43.210Z,923.31
2019-03-10T02:10:43.189Z,923.33
2019-03-10T02:11:43.180Z,923.33
2019-03-10T02:12:43.176Z,923.31
2019-03-10T02:13:43.259Z,923.36
2019-03-10T02:14:43.150Z,923.37
2019-03-10T02:15:43.135Z,923.36
2019-03-10T02:16:43.124Z,923.30
2019-03-10T02:17:43.107Z,923.36
2019-03-10T02:18:43.108Z,923.33
2019-03-10T02:19:43.352Z,923.37
2019-03-10T02:20:43.095Z,923.36
2019-03-10T02:21:43.075Z,923.38
2019-03-10T02:22:43.066Z,923.34
2019-03-10T02:23:43.057Z,923.35
2019-03-10T02:24:43.042Z,923.38
2019-03-10T02:25:43.130Z,923.38
2019-03-10T02:26:43.015Z,923.38
2019-03-10T02:27:42.999Z,923.36
2019-03-10T02:28:43.001Z,923.40
2019-03-10T02:29:42.991Z,923.42
2019-03-10T02:30:42.979Z,923.39
2019-03-10T02:31:43.067Z,923.31
2019-03-10T02:32:42.958Z,923.32
2019-03-10T02:33:42.935Z,923.37
2019-03-10T02:34:42.944Z,923.37
2019-03-10T02:35:42.920Z,923.31
2019-03-10T02:36:42.914Z,923.34
2019-03-10T02:37:43.202Z,923.29
2019-03-10T02:38:42.893Z,923.33
2019-03-10T02:39:42.886Z,923.27
2019-03-10T02:40:43.568Z,923.29
2019-03-10T02:41:42.861Z,923.27
2019-03-10T02:42:42.843Z,923.26
2019-03-10T02:43:42.936Z,923.34
2019-03-10T02:44:42.831Z,923.30
2019-03-10T02:45:42.809Z,923.34
2019-03-10T02:46:42.804Z,923.31
2019-03-10T02:47:42.792Z,923.32
2019-03-10T02:48:42.785Z,923.37
2019-03-10T02:49:42.869Z,923.31
2019-03-10T02:50:42.759Z,923.32
2019-03-10T02:51:42.755Z,923.36
2019-03-10T02:52:42.738Z,923.31
2019-03-10T02:53:42.726Z,923.31
2019-03-10T02:54:42.710Z,923.23
2019-03-10T02:55:43.006Z,923.21
2019-03-10T02:56:42.697Z,923.21
2019-03-10T02:57:42.707Z,923.22
2019-03-10T02:58:42.664Z,923.24
2019-03-10T02:59:42.661Z,923.20
2019-03-10T03:00:42.646Z,923.22
2019-03-10T03:01:42.744Z,923.25
2019-03-10T03:02:42.627Z,923.21
2019-03-10T03:03:42.606Z,923.24
2019-03-10T03:04:42.609Z,923.21
2019-03-10T03:05:42.609Z,923.25
2019-03-10T03:06:42.585Z,923.27
2019-03-10T03:07:42.676Z,923.26
2019-03-10T03:08:42.568Z,923.25
2019-03-10T03:09:42.571Z,923.27
2019-03-10T03:10:42.547Z,923.27
2019-03-10T03:11:42.542Z,923.27
2019-03-10T03:12:42.574Z,923.27
2019-03-10T03:13:42.751Z,923.27
2019-03-10T03:14:42.506Z,923.19
2019-03-10T03:15:42.497Z,923.19
2019-03-10T03:16:42.485Z,923.19
2019-03-10T03:17:42.532Z,923.25
2019-03-10T03:18:42.462Z,923.23
2019-03-10T03:19:42.561Z,923.25
2019-03-10T03:20:42.435Z,923.23
2019-03-10T03:21:43.823Z,923.19
2019-03-10T03:22:42.427Z,923.15
2019-03-10T03:23:42.411Z,923.20
2019-03-10T03:24:42.403Z,923.16
2019-03-10T03:25:42.536Z,923.18
2019-03-10T03:26:42.379Z,923.17
2019-03-10T03:27:42.370Z,923.21
2019-03-10T03:28:42.359Z,923.18
2019-03-10T03:29:42.348Z,923.17
2019-03-10T03:30:42.340Z,923.19
2019-03-10T03:31:42.627Z,923.16
2019-03-10T03:32:42.311Z,923.20
2019-03-10T03:33:42.306Z,923.18
2019-03-10T03:34:42.294Z,923.21
2019-03-10T03:35:42.273Z,923.22
2019-03-10T03:36:42.275Z,923.20
2019-03-10T03:37:42.356Z,923.20
2019-03-10T03:38:42.239Z,923.22
2019-03-10T03:39:42.248Z,923.17
2019-03-10T03:40:42.224Z,923.21
2019-03-10T03:41:42.218Z,923.23
2019-03-10T03:42:42.211Z,923.20
2019-03-10T03:43:42.309Z,923.18
2019-03-10T03:44:42.190Z,923.15
2019-03-10T03:45:42.168Z,923.10
2019-03-10T03:46:42.172Z,923.04
2019-03-10T03:47:42.152Z,923.12
2019-03-10T03:48:42.145Z,923.09
2019-03-10T03:49:42.377Z,923.10
2019-03-10T03:50:42.111Z,923.08
2019-03-10T03:51:42.107Z,923.10
2019-03-10T03:52:42.102Z,923.12
2019-03-10T03:53:42.094Z,923.06
2019-03-10T03:54:42.081Z,923.07
2019-03-10T03:55:42.166Z,923.08
2019-03-10T03:56:42.059Z,923.10
2019-03-10T03:57:42.044Z,923.08
2019-03-10T03:58:42.031Z,923.03
2019-03-10T03:59:42.025Z,923.04
2019-03-10T04:00:42.109Z,923.03
2019-03-10T04:01:41.999Z,923.04
2019-03-10T04:02:41.988Z,923.02
2019-03-10T04:03:41.976Z,923.04
2019-03-10T04:04:41.969Z,923.04
2019-03-10T04:05:42.035Z,923.08
2019-03-10T04:06:42.056Z,923.07
2019-03-10T04:07:41.943Z,923.09
2019-03-10T04:08:41.933Z,923.11
2019-03-10T04:09:41.917Z,923.12
2019-03-10T04:10:41.905Z,923.13
2019-03-10T04:11:41.889Z,923.09
2019-03-10T04:12:41.981Z,923.14
2019-03-10T04:13:41.870Z,923.15
2019-03-10T04:14:41.861Z,923.13
2019-03-10T04:15:41.848Z,923.09
2019-03-10T04:16:41.842Z,923.13
2019-03-10T04:17:42.079Z,923.13
2019-03-10T04:18:41.829Z,923.11
2019-03-10T04:19:41.812Z,923.11
2019-03-10T04:20:41.794Z,923.10
2019-03-10T04:21:41.781Z,923.07
2019-03-10T04:22:41.813Z,923.11
2019-03-10T04:23:41.858Z,923.11
2019-03-10T04:24:41.759Z,923.09
2019-03-10T04:25:41.741Z,923.10
2019-03-10T04:26:41.731Z,923.09
2019-03-10T04:27:41.734Z,923.06
2019-03-10T04:28:41.710Z,923.05
2019-03-10T04:29:41.798Z,923.04
2019-03-10T04:30:41.693Z,923.04
2019-03-10T04:31:41.718Z,923.02
2019-03-10T04:32:41.673Z,923.02
2019-03-10T04:33:41.660Z,923.00
2019-03-10T04:34:41.666Z,922.99
2019-03-10T04:35:42.033Z,923.01
2019-03-10T04:36:41.620Z,922.96
2019-03-10T04:37:41.615Z,922.96
2019-03-10T04:38:41.592Z,922.96
2019-03-10T04:39:41.587Z,922.96
2019-03-10T04:40:41.687Z,922.94
2019-03-10T04:41:41.566Z,922.93
2019-03-10T04:42:41.562Z,922.97
2019-03-10T04:43:41.539Z,922.95
2019-03-10T04:44:41.540Z,922.90
2019-03-10T04:45:41.632Z,922.90
2019-03-10T04:46:41.512Z,922.89
2019-03-10T04:47:41.505Z,922.88
2019-03-10T04:48:41.495Z,922.89
2019-03-10T04:49:41.479Z,922.91
2019-03-10T04:50:41.472Z,922.87
2019-03-10T04:51:41.763Z,922.90
2019-03-10T04:52:41.449Z,922.85
2019-03-10T04:53:41.439Z,922.84
2019-03-10T04:54:41.431Z,922.79
2019-03-10T04:55:41.415Z,922.80
2019-03-10T04:56:41.414Z,922.81
2019-03-10T04:57:41.497Z,922.78
2019-03-10T04:58:41.389Z,922.80
2019-03-10T04:59:41.372Z,922.78
2019-03-10T05:00:41.360Z,922.79
2019-03-10T05:01:41.349Z,922.80
2019-03-10T05:02:41.342Z,922.75
2019-03-10T05:03:41.487Z,922.77
2019-03-10T05:04:41.326Z,922.75
2019-03-10T05:05:41.314Z,922.71
2019-03-10T05:06:41.293Z,922.71
2019-03-10T05:07:41.294Z,922.70
2019-03-10T05:08:41.432Z,922.71
2019-03-10T05:09:41.275Z,922.70
2019-03-10T05:10:41.255Z,922.68
2019-03-10T05:11:41.254Z,922.74
2019-03-10T05:12:41.239Z,922.75
2019-03-10T05:13:41.686Z,922.75
2019-03-10T05:14:41.215Z,922.72
2019-03-10T05:15:41.205Z,922.69
2019-03-10T05:16:41.193Z,922.69
2019-03-10T05:17:41.184Z,922.66
2019-03-10T05:18:41.176Z,922.67
2019-03-10T05:19:41.304Z,922.63
2019-03-10T05:20:41.152Z,922.62
2019-03-10T05:21:41.140Z,922.57
2019-03-10T05:22:41.134Z,922.58
2019-03-10T05:23:41.120Z,922.53
2019-03-10T05:24:41.107Z,922.51
2019-03-10T05:25:41.195Z,922.49
2019-03-10T05:26:41.096Z,922.49
2019-03-10T05:27:41.083Z,922.51
2019-03-10T05:28:41.058Z,922.49
2019-03-10T05:29:41.060Z,922.48
2019-03-10T05:30:41.051Z,922.49
2019-03-10T05:31:41.281Z,922.50
2019-03-10T05:32:41.028Z,922.48
2019-03-10T05:33:41.023Z,922.44
2019-03-10T05:34:41.007Z,922.42
2019-03-10T05:35:41.003Z,922.41
2019-03-10T05:36:40.976Z,922.44
2019-03-10T05:37:41.077Z,922.44
2019-03-10T05:38:40.980Z,922.44
2019-03-10T05:39:40.953Z,922.34
2019-03-10T05:40:40.945Z,922.34
2019-03-10T05:41:40.926Z,922.37
2019-03-10T05:42:40.921Z,922.36
2019-03-10T05:43:41.010Z,922.33
2019-03-10T05:44:40.898Z,922.30
2019-03-10T05:45:40.885Z,922.30
2019-03-10T05:46:40.880Z,922.27
2019-03-10T05:47:40.870Z,922.27
2019-03-10T05:48:40.857Z,922.26
2019-03-10T05:49:41.147Z,922.22
2019-03-10T05:50:40.837Z,922.22
2019-03-10T05:51:40.828Z,922.22
2019-03-10T05:52:40.812Z,922.18
2019-03-10T05:53:40.805Z,922.17
2019-03-10T05:54:40.789Z,922.15
2019-03-10T05:55:40.879Z,922.19
2019-03-10T05:56:40.769Z,922.16
2019-03-10T05:57:40.758Z,922.16
2019-03-10T05:58:40.746Z,922.16
2019-03-10T05:59:40.748Z,922.16
2019-03-10T06:00:42.917Z,922.11
2019-03-10T06:01:40.817Z,922.16
2019-03-10T06:02:40.706Z,922.13
2019-03-10T06:03:40.702Z,922.13
2019-03-10T06:04:40.678Z,922.10
2019-03-10T06:05:40.681Z,922.11
2019-03-10T06:06:40.664Z,922.10
2019-03-10T06:07:40.950Z,922.10
2019-03-10T06:08:40.638Z,922.09
2019-03-10T06:09:40.638Z,922.08
2019-03-10T06:10:40.626Z,922.04
2019-03-10T06:11:40.618Z,922.03
2019-03-10T06:12:40.606Z,922.04
2019-03-10T06:13:40.692Z,921.98
2019-03-10T06:14:40.589Z,921.97
2019-03-10T06:15:40.569Z,921.95
2019-03-10T06:16:40.551Z,921.94
2019-03-10T06:17:40.547Z,921.92
2019-03-10T06:18:40.531Z,921.92
2019-03-10T06:19:40.627Z,921.95
2019-03-10T06:20:40.520Z,921.92
2019-03-10T06:21:40.505Z,921.90
2019-03-10T06:22:40.494Z,921.83
2019-03-10T06:23:40.482Z,921.87
2019-03-10T06:24:40.474Z,921.86
2019-03-10T06:25:40.715Z,921.85
2019-03-10T06:26:40.453Z,921.86
2019-03-10T06:27:40.439Z,921.91
2019-03-10T06:28:40.433Z,921.84
2019-03-10T06:29:40.416Z,921.88
2019-03-10T06:30:40.404Z,921.84
2019-03-10T06:31:40.501Z,921.79
2019-03-10T06:32:40.385Z,921.76
2019-03-10T06:33:40.377Z,921.82
2019-03-10T06:34:40.362Z,921.77
2019-03-10T06:35:40.355Z,921.85
2019-03-10T06:36:40.344Z,921.84
2019-03-10T06:37:40.427Z,921.85
2019-03-10T06:38:40.317Z,921.81
2019-03-10T06:39:40.306Z,921.83
2019-03-10T06:40:40.303Z,921.80
2019-03-10T06:41:40.280Z,921.78
2019-03-10T06:42:40.271Z,921.80
2019-03-10T06:43:40.619Z,921.79
2019-03-10T06:44:40.250Z,921.75
2019-03-10T06:45:40.232Z,921.74
2019-03-10T06:46:40.235Z,921.77
2019-03-10T06:47:40.217Z,921.71
2019-03-10T06:48:40.210Z,921.74
2019-03-10T06:49:40.300Z,921.70
2019-03-10T06:50:40.178Z,921.67
2019-03-10T06:51:40.175Z,921.65
2019-03-10T06:52:40.166Z,921.66
2019-03-10T06:53:40.156Z,921.63
2019-03-10T06:54:40.145Z,921.61
2019-03-10T06:55:40.228Z,921.67
2019-03-10T06:56:40.121Z,921.65
2019-03-10T06:57:40.114Z,921.61
2019-03-10T06:58:40.088Z,921.61
2019-03-10T06:59:40.084Z,921.58
2019-03-10T07:00:40.075Z,921.57
2019-03-10T07:01:40.364Z,921.53
2019-03-10T07:02:40.058Z,921.53
2019-03-10T07:03:40.047Z,921.54
2019-03-10T07:04:40.036Z,921.48
2019-03-10T07:05:40.018Z,921.48
2019-03-10T07:06:40.018Z,921.45
2019-03-10T07:07:40.096Z,921.43
2019-03-10T07:08:39.989Z,921.39
2019-03-10T07:09:39.982Z,921.40
2019-03-10T07:10:39.962Z,921.38
2019-03-10T07:11:39.966Z,921.36
2019-03-10T07:12:39.943Z,921.34
2019-03-10T07:13:40.029Z,921.34
2019-03-10T07:14:39.928Z,921.41
2019-03-10T07:15:39.913Z,921.36
2019-03-10T07:16:39.896Z,921.30
2019-03-10T07:17:39.885Z,921.33
2019-03-10T07:18:39.871Z,921.32
2019-03-10T07:19:40.163Z,921.30
2019-03-10T07:20:39.855Z,921.24
2019-03-10T07:21:39.841Z,921.22
2019-03-10T07:22:39.838Z,921.25
2019-03-10T07:23:39.825Z,921.22
2019-03-10T07:24:39.809Z,921.20
2019-03-10T07:25:39.955Z,921.17
2019-03-10T07:26:39.791Z,921.19
2019-03-10T07:27:39.780Z,921.17
2019-03-10T07:28:39.769Z,921.15
2019-03-10T07:29:39.751Z,921.14
2019-03-10T07:30:39.743Z,921.11
2019-03-10T07:31:39.886Z,921.12
2019-03-10T07:32:39.721Z,921.12
2019-03-10T07:33:39.713Z,921.13
2019-03-10T07:34:39.707Z,921.08
2019-03-10T07:35:39.692Z,921.08
2019-03-10T07:36:39.681Z,921.08
2019-03-10T07:37:39.923Z,921.11
2019-03-10T07:38:39.660Z,921.11
2019-03-10T07:39:39.641Z,921.07
2019-03-10T07:40:39.635Z,921.09
2019-03-10T07:41:39.622Z,921.01
2019-03-10T07:42:39.615Z,921.07
2019-03-10T07:43:39.707Z,921.00
2019-03-10T07:44:39.588Z,920.94
2019-03-10T07:45:39.585Z,920.91
2019-03-10T07:46:39.565Z,920.85
2019-03-10T07:47:39.560Z,920.85
2019-03-10T07:48:39.546Z,920.80
2019-03-10T07:49:39.637Z,920.81
2019-03-10T07:50:39.524Z,920.81
2019-03-10T07:51:39.515Z,920.75
2019-03-10T07:52:39.503Z,920.78
2019-03-10T07:53:39.487Z,920.74
2019-03-10T07:54:39.483Z,920.73
2019-03-10T07:55:39.729Z,920.72
2019-03-10T07:56:39.463Z,920.68
2019-03-10T07:57:39.456Z,920.68
2019-03-10T07:58:39.441Z,920.65
2019-03-10T07:59:39.431Z,920.64
2019-03-10T08:00:39.421Z,920.59
2019-03-10T08:01:39.552Z,920.58
2019-03-10T08:02:39.399Z,920.54
2019-03-10T08:03:39.436Z,920.55
2019-03-10T08:04:39.369Z,920.57
2019-03-10T08:05:39.363Z,920.50
2019-03-10T08:06:39.351Z,920.50
2019-03-10T08:07:39.438Z,920.47
2019-03-10T08:08:39.325Z,920.45
2019-03-10T08:09:39.318Z,920.47
2019-03-10T08:10:39.305Z,920.42
2019-03-10T08:11:39.291Z,920.42
2019-03-10T08:12:39.275Z,920.40
2019-03-10T08:13:40.375Z,920.35
2019-03-10T08:14:39.257Z,920.35
2019-03-10T08:15:39.248Z,920.28
2019-03-10T08:16:39.244Z,920.36
2019-03-10T08:17:39.225Z,920.25
2019-03-10T08:18:39.211Z,920.23
2019-03-10T08:19:39.311Z,920.20
2019-03-10T08:20:39.200Z,920.18
2019-03-10T08:21:39.183Z,920.16
2019-03-10T08:22:39.175Z,920.10
2019-03-10T08:23:39.163Z,920.18
2019-03-10T08:24:39.159Z,920.10
2019-03-10T08:25:39.241Z,920.07
2019-03-10T08:26:39.130Z,920.06
2019-03-10T08:27:39.122Z,920.11
2019-03-10T08:28:39.115Z,920.05
2019-03-10T08:29:39.104Z,920.05
2019-03-10T08:30:39.086Z,920.02
2019-03-10T08:31:39.334Z,919.99
2019-03-10T08:32:39.066Z,919.93
2019-03-10T08:33:39.054Z,919.93
2019-03-10T08:34:39.044Z,919.94
2019-03-10T08:35:39.055Z,919.89
2019-03-10T08:36:39.027Z,919.91
2019-03-10T08:37:39.112Z,919.90
2019-03-10T08:38:39.006Z,919.86
2019-03-10T08:39:38.997Z,919.83
2019-03-10T08:40:38.978Z,919.84
2019-03-10T08:41:38.967Z,919.85
2019-03-10T08:42:38.955Z,919.79
2019-03-10T08:43:39.046Z,919.78
2019-03-10T08:44:38.934Z,919.80
2019-03-10T08:45:38.929Z,919.79
2019-03-10T08:46:38.921Z,919.75
2019-03-10T08:47:38.908Z,919.74
2019-03-10T08:48:38.890Z,919.68
2019-03-10T08:49:45.058Z,919.64
2019-03-10T08:50:40.874Z,919.65
2019-03-10T08:51:38.853Z,919.59
2019-03-10T08:52:38.854Z,919.53
2019-03-10T08:53:38.841Z,919.59
2019-03-10T08:54:38.824Z,919.52
2019-03-10T08:55:38.920Z,919.54
2019-03-10T08:56:38.856Z,919.53
2019-03-10T08:57:38.793Z,919.49
2019-03-10T08:58:38.777Z,919.43
2019-03-10T08:59:38.775Z,919.45
2019-03-10T09:00:38.758Z,919.47
2019-03-10T09:01:38.852Z,919.43
2019-03-10T09:02:38.738Z,919.39
2019-03-10T09:03:38.730Z,919.41
2019-03-10T09:04:38.710Z,919.40
2019-03-10T09:05:38.715Z,919.40
2019-03-10T09:06:38.694Z,919.39
2019-03-10T09:07:38.930Z,919.39
2019-03-10T09:08:38.672Z,919.33
2019-03-10T09:09:38.663Z,919.29
2019-03-10T09:10:38.648Z,919.24
2019-03-10T09:11:38.641Z,919.21
2019-03-10T09:12:38.626Z,919.20
2019-03-10T09:13:38.722Z,919.18
2019-03-10T09:14:38.608Z,919.14
2019-03-10T09:15:40.946Z,919.13
2019-03-10T09:16:38.587Z,919.10
2019-03-10T09:17:38.573Z,919.08
2019-03-10T09:18:38.567Z,919.03
2019-03-10T09:19:38.704Z,919.03
2019-03-10T09:20:38.545Z,918.97
2019-03-10T09:21:38.523Z,918.98
2019-03-10T09:22:38.514Z,918.97
2019-03-10T09:23:38.510Z,918.93
2019-03-10T09:24:38.492Z,918.90
2019-03-10T09:25:38.740Z,918.97
2019-03-10T09:26:38.474Z,918.95
2019-03-10T09:27:38.460Z,918.90
2019-03-10T09:28:38.449Z,918.88
2019-03-10T09:29:38.443Z,918.87
2019-03-10T09:30:38.431Z,918.86
2019-03-10T09:31:38.520Z,918.81
2019-03-10T09:32:38.414Z,918.77
2019-03-10T09:33:38.399Z,918.79
2019-03-10T09:34:38.389Z,918.79
2019-03-10T09:35:38.379Z,918.81
2019-03-10T09:36:38.362Z,918.74
2019-03-10T09:37:38.450Z,918.80
2019-03-10T09:38:38.341Z,918.80
2019-03-10T09:39:38.330Z,918.80
2019-03-10T09:40:38.312Z,918.79
2019-03-10T09:41:38.322Z,918.75
2019-03-10T09:42:38.310Z,918.70
2019-03-10T09:43:38.584Z,918.70
2019-03-10T09:44:38.275Z,918.71
2019-03-10T09:45:38.263Z,918.65
2019-03-10T09:46:38.254Z,918.64
2019-03-10T09:47:38.245Z,918.63
2019-03-10T09:48:38.238Z,918.63
2019-03-10T09:49:38.321Z,918.56
2019-03-10T09:50:38.205Z,918.56
2019-03-10T09:51:38.199Z,918.54
2019-03-10T09:52:38.189Z,918.49
2019-03-10T09:53:38.183Z,918.47
2019-03-10T09:54:38.166Z,918.45
2019-03-10T09:55:38.261Z,918.42
2019-03-10T09:56:38.150Z,918.41
2019-03-10T09:57:38.129Z,918.40
2019-03-10T09:58:38.129Z,918.40
2019-03-10T09:59:38.119Z,918.38
2019-03-10T10:00:38.101Z,918.37
2019-03-10T10:01:38.343Z,918.41
2019-03-10T10:02:38.083Z,918.39
2019-03-10T10:03:38.075Z,918.37
2019-03-10T10:04:38.060Z,918.41
2019-03-10T10:05:38.047Z,918.42
2019-03-10T10:06:38.086Z,918.42
2019-03-10T10:07:38.125Z,918.40
2019-03-10T10:08:38.014Z,918.41
2019-03-10T10:09:38.004Z,918.43
2019-03-10T10:10:37.995Z,918.37
2019-03-10T10:11:37.982Z,918.41
2019-03-10T10:12:38.270Z,918.38
2019-03-10T10:13:37.965Z,918.35
2019-03-10T10:14:37.956Z,918.43
2019-03-10T10:15:37.943Z,918.46
2019-03-10T10:16:37.931Z,918.39
2019-03-10T10:17:37.921Z,918.36
2019-03-10T10:18:38.004Z,918.34
2019-03-10T10:19:37.884Z,918.35
2019-03-10T10:20:37.884Z,918.30
2019-03-10T10:21:37.862Z,918.30
2019-03-10T10:22:37.866Z,918.25
2019-03-10T10:23:37.846Z,918.28
2019-03-10T10:24:37.939Z,918.22
2019-03-10T10:25:37.819Z,918.24
2019-03-10T10:26:37.815Z,918.21
2019-03-10T10:27:37.810Z,918.22
2019-03-10T10:28:37.794Z,918.23
2019-03-10T10:29:38.027Z,918.20
2019-03-10T10:30:37.771Z,918.17
2019-03-10T10:31:37.760Z,918.16
2019-03-10T10:32:37.750Z,918.16
2019-03-10T10:33:37.740Z,918.19
2019-03-10T10:34:37.729Z,918.19
2019-03-10T10:35:37.818Z,918.22
2019-03-10T10:36:37.715Z,918.13
2019-03-10T10:37:37.705Z,918.23
2019-03-10T10:38:37.925Z,918.22
2019-03-10T10:39:37.675Z,918.12
2019-03-10T10:40:37.658Z,918.17
2019-03-10T10:41:37.762Z,918.19
2019-03-10T10:42:37.643Z,918.22
2019-03-10T10:43:37.633Z,918.18
2019-03-10T10:44:37.620Z,918.15
2019-03-10T10:45:37.625Z,918.07
2019-03-10T10:46:37.602Z,918.15
2019-03-10T10:47:37.895Z,918.17
2019-03-10T10:48:37.583Z,918.15
2019-03-10T10:49:37.563Z,918.16
2019-03-10T10:50:37.578Z,918.14
2019-03-10T10:51:37.548Z,918.14
2019-03-10T10:52:37.545Z,918.16
2019-03-10T10:53:37.676Z,918.15
2019-03-10T10:54:37.523Z,918.15
2019-03-10T10:55:37.512Z,918.18
2019-03-10T10:56:37.512Z,918.15
2019-03-10T10:57:37.511Z,918.14
2019-03-10T10:58:37.479Z,918.15
2019-03-10T10:59:37.612Z,918.10
2019-03-10T11:00:37.453Z,918.18
2019-03-10T11:01:37.436Z,918.16
2019-03-10T11:02:37.441Z,918.22
2019-03-10T11:03:37.419Z,918.17
2019-03-10T11:04:37.414Z,918.08
2019-03-10T11:05:37.758Z,918.12
2019-03-10T11:06:37.393Z,918.14
2019-03-10T11:07:37.376Z,918.11
2019-03-10T11:08:37.363Z,918.11
2019-03-10T11:09:37.358Z,918.07
2019-03-10T11:10:37.341Z,918.12
2019-03-10T11:11:37.437Z,918.10
2019-03-10T11:12:37.326Z,918.15
2019-03-10T11:13:37.307Z,918.11
2019-03-10T11:14:37.302Z,918.11
2019-03-10T11:15:37.293Z,918.12
2019-03-10T11:16:37.277Z,918.12
2019-03-10T11:17:37.370Z,918.13
2019-03-10T11:18:37.253Z,918.11
2019-03-10T11:19:37.244Z,918.14
2019-03-10T11:20:37.242Z,918.08
2019-03-10T11:21:37.217Z,918.06
2019-03-10T11:22:37.206Z,918.07
2019-03-10T11:23:37.502Z,918.14
2019-03-10T11:24:37.194Z,918.06
2019-03-10T11:25:37.184Z,918.11
2019-03-10T11:26:37.174Z,918.12
2019-03-10T11:27:37.162Z,918.10
2019-03-10T11:28:37.151Z,918.18
2019-03-10T11:29:37.236Z,918.13
2019-03-10T11:30:37.149Z,918.17
2019-03-10T11:31:37.117Z,918.13
2019-03-10T11:32:37.101Z,918.19
2019-03-10T11:33:37.092Z,918.14
2019-03-10T11:34:37.077Z,918.11
2019-03-10T11:35:37.169Z,918.16
2019-03-10T11:36:37.062Z,918.10
2019-03-10T11:37:37.051Z,918.10
2019-03-10T11:38:37.333Z,918.14
2019-03-10T11:39:37.029Z,918.11
2019-03-10T11:40:37.019Z,918.08
2019-03-10T11:41:37.252Z,918.23
2019-03-10T11:42:36.996Z,918.18
2019-03-10T11:43:36.989Z,918.27
2019-03-10T11:44:36.965Z,918.22
2019-03-10T11:45:36.959Z,918.22
2019-03-10T11:46:36.949Z,918.27
2019-03-10T11:47:37.094Z,918.22
2019-03-10T11:48:36.922Z,918.26
2019-03-10T11:49:36.917Z,918.27
2019-03-10T11:50:36.909Z,918.28
2019-03-10T11:51:36.898Z,918.30
2019-03-10T11:52:36.883Z,918.30
2019-03-10T11:53:36.971Z,918.30
2019-03-10T11:54:36.860Z,918.30
2019-03-10T11:55:36.854Z,918.33
2019-03-10T11:56:36.851Z,918.34
2019-03-10T11:57:36.826Z,918.31
2019-03-10T11:58:36.810Z,918.27
2019-03-10T11:59:37.061Z,918.29
2019-03-10T12:00:36.788Z,918.36
2019-03-10T12:01:36.780Z,918.36
2019-03-10T12:02:36.772Z,918.31
2019-03-10T12:03:36.767Z,918.34
2019-03-10T12:04:36.753Z,918.33
2019-03-10T12:05:36.838Z,918.35
2019-03-10T12:06:36.798Z,918.32
2019-03-10T12:07:36.722Z,918.38
2019-03-10T12:08:36.705Z,918.40
2019-03-10T12:09:36.701Z,918.44
2019-03-10T12:10:36.682Z,918.42
2019-03-10T12:11:36.779Z,918.43
2019-03-10T12:12:36.666Z,918.43
2019-03-10T12:13:36.657Z,918.50
2019-03-10T12:14:36.642Z,918.42
2019-03-10T12:15:36.634Z,918.47
2019-03-10T12:16:36.614Z,918.49
2019-03-10T12:17:36.963Z,918.53
2019-03-10T12:18:36.602Z,918.50
2019-03-10T12:19:36.592Z,918.56
2019-03-10T12:20:36.569Z,918.51
2019-03-10T12:21:36.569Z,918.49
2019-03-10T12:22:36.556Z,918.46
2019-03-10T12:23:36.646Z,918.53
2019-03-10T12:24:36.532Z,918.55
2019-03-10T12:25:36.514Z,918.58
2019-03-10T12:26:36.514Z,918.56
2019-03-10T12:27:36.502Z,918.58
2019-03-10T12:28:36.486Z,918.56
2019-03-10T12:29:36.630Z,918.49
2019-03-10T12:30:36.470Z,918.64
2019-03-10T12:31:36.453Z,918.51
2019-03-10T12:32:36.506Z,918.56
2019-03-10T12:33:36.446Z,918.54
2019-03-10T12:34:36.421Z,918.55
2019-03-10T12:35:36.766Z,918.55
2019-03-10T12:36:36.481Z,918.54
2019-03-10T12:37:36.390Z,918.55
2019-03-10T12:38:36.378Z,918.56